Evelyn Maersk — OXHV2 — position and weather

sailwx.info

Track history (hours):
 
Tides and Currents Weather Stations Pressure Air Temp Water Temp Dewpoint Dewpoint Depression Visibility Wind Speed Wind Dir Waves Ship Positions

Evelyn Maersk

Last reported at 2014-Sep-01 21:31 UTC. Time now 2014-Sep-01 23:51 UTC.
Position N 36°40' E 014°51'.

Length 398 m; draft 15 m.

Type: Cargo ship. MMSI: 220496000.

Date/timePositionNaut miles runAvg speedWind from/ knotsBaromVisibWave heightAir tempDewpointWater temp
2014-Sep-01 21:31N 36°40' E 014°51'11 9.0
2014-Sep-01 20:16N 36°38' E 014°38'1420.0
2014-Sep-01 19:33N 36°43' E 014°21'1919.0
2014-Sep-01 18:33N 36°47' E 013°58'1919.3
2014-Sep-01 17:33N 36°52' E 013°35'35 5.4
2014-Sep-01 11:06N 36°48' E 012°51'3911.0
2014-Sep-01 07:32N 36°35' E 013°37'1111.3
2014-Sep-01 06:33N 36°32' E 013°50'1111.6
2014-Sep-01 05:33N 36°28' E 014°04'1211.6
2014-Sep-01 04:33N 36°25' E 014°17'1211.7
2014-Sep-01 03:33N 36°21' E 014°31'1211.6
2014-Sep-01 02:33N 36°18' E 014°45'1211.6
2014-Sep-01 01:33N 36°14' E 014°59'1311.6
2014-Sep-01 00:27N 36°10' E 015°14'1011.7
2014-Aug-31 23:33N 36°07' E 015°26'1211.8
2014-Aug-31 22:33N 36°04' E 015°40'68715.1
2014-Aug-30 01:08N 32°36' E 028°53'6722.3
2014-Aug-29 22:07N 32°16' E 030°09'1722.1
2014-Aug-29 21:21N 32°10' E 030°28'1821.7
2014-Aug-29 20:31N 32°04' E 030°48'2221.3
2014-Aug-29 19:30N 31°59' E 031°13'4120.8
2014-Aug-29 17:30N 31°45' E 031°59'1616.3
2014-Aug-29 16:33N 31°34' E 032°11'1514.4
2014-Aug-29 15:29N 31°23' E 032°23'1112.3
2014-Aug-29 14:34N 31°12' E 032°20'10 9.5
2014-Aug-29 13:34N 31°02' E 032°19'10 9.5
2014-Aug-29 12:33N 30°53' E 032°19'58 7.0
2014-Aug-29 04:14N 29°56' E 032°34'7 1.5
2014-Aug-28 23:30N 29°49' E 032°33'  
2014-Aug-24 05:00N 12°00' E 060°36'   220 / 221008.8 5.4 2.026.421.626.6
Track history (hours):
 
Tides and Currents Weather Stations Pressure Air Temp Water Temp Dewpoint Dewpoint Depression Visibility Wind Speed Wind Dir Waves Ship Positions

Evelyn Maersk

Last reported at 2014-Sep-01 21:31 UTC. Time now 2014-Sep-01 23:51 UTC.
Position N 36°40' E 014°51'.

Length 398 m; draft 15 m.

Type: Cargo ship. MMSI: 220496000.

Date/timePositionNaut miles runAvg speedWind from/ knotsBaromVisibWave heightAir tempDewpointWater temp
2014-Sep-01 21:31N 36°40' E 014°51'11 9.0
2014-Sep-01 20:16N 36°38' E 014°38'1420.0
2014-Sep-01 19:33N 36°43' E 014°21'1919.0
2014-Sep-01 18:33N 36°47' E 013°58'1919.3
2014-Sep-01 17:33N 36°52' E 013°35'35 5.4
2014-Sep-01 11:06N 36°48' E 012°51'3911.0
2014-Sep-01 07:32N 36°35' E 013°37'1111.3
2014-Sep-01 06:33N 36°32' E 013°50'1111.6
2014-Sep-01 05:33N 36°28' E 014°04'1211.6
2014-Sep-01 04:33N 36°25' E 014°17'1211.7
2014-Sep-01 03:33N 36°21' E 014°31'1211.6
2014-Sep-01 02:33N 36°18' E 014°45'1211.6
2014-Sep-01 01:33N 36°14' E 014°59'1311.6
2014-Sep-01 00:27N 36°10' E 015°14'1011.7
2014-Aug-31 23:33N 36°07' E 015°26'1211.8
2014-Aug-31 22:33N 36°04' E 015°40'68715.1
2014-Aug-30 01:08N 32°36' E 028°53'6722.3
2014-Aug-29 22:07N 32°16' E 030°09'1722.1
2014-Aug-29 21:21N 32°10' E 030°28'1821.7
2014-Aug-29 20:31N 32°04' E 030°48'2221.3
2014-Aug-29 19:30N 31°59' E 031°13'4120.8
2014-Aug-29 17:30N 31°45' E 031°59'1616.3
2014-Aug-29 16:33N 31°34' E 032°11'1514.4
2014-Aug-29 15:29N 31°23' E 032°23'1112.3
2014-Aug-29 14:34N 31°12' E 032°20'10 9.5
2014-Aug-29 13:34N 31°02' E 032°19'10 9.5
2014-Aug-29 12:33N 30°53' E 032°19'58 7.0
2014-Aug-29 04:14N 29°56' E 032°34'7 1.5
2014-Aug-28 23:30N 29°49' E 032°33'  
2014-Aug-24 05:00N 12°00' E 060°36'   220 / 221008.8 5.4 2.026.421.626.6

Dump ship's entire track history